Time;durP1;ratioP1;P1;durP2;ratioP2;P2;SDS_P1;SDS_P2;PMS_P1;PMS_P2;Temp;Humidity;BMP_temperature;BMP_pressure;BME280_temperature;BME280_humidity;BME280_pressure;Samples;Min_cycle;Max_cycle;Signal;HPM_P1;HPM_P2
2024/03/04 00:01:54;;;;;;;152.37;50.60;;;;;;;;;;7341583;19;20801;-54
2024/03/04 00:04:23;;;;;;;136.47;46.40;;;;;;;;;;7318895;19;20442;-56
2024/03/04 00:06:53;;;;;;;140.87;47.80;;;;;;;;;;7347068;19;20423;-53
2024/03/04 00:09:22;;;;;;;136.83;49.17;;;;;;;;;;7323113;19;20423;-54
2024/03/04 00:11:52;;;;;;;155.13;50.03;;;;;;;;;;7347390;19;20427;-52
2024/03/04 00:14:22;;;;;;;149.20;48.87;;;;;;;;;;7323310;19;20487;-55
2024/03/04 00:16:54;;;;;;;148.80;49.83;;;;;;;;;;7346779;19;20415;-54
2024/03/04 00:19:23;;;;;;;129.97;48.60;;;;;;;;;;7323451;19;20432;-55
2024/03/04 00:21:52;;;;;;;146.23;52.17;;;;;;;;;;7346525;19;20399;-52
2024/03/04 00:24:22;;;;;;;143.07;50.70;;;;;;;;;;7324144;19;20418;-51
2024/03/04 00:26:51;;;;;;;145.53;49.73;;;;;;;;;;7344777;19;20391;-52
2024/03/04 00:29:21;;;;;;;142.63;51.60;;;;;;;;;;7323361;19;20411;-53
2024/03/04 00:31:50;;;;;;;124.23;47.57;;;;;;;;;;7346906;19;20388;-54
2024/03/04 00:34:22;;;;;;;126.30;47.43;;;;;;;;;;7327426;19;20490;-54
2024/03/04 00:36:52;;;;;;;153.40;49.07;;;;;;;;;;7345283;19;20399;-52
2024/03/04 00:39:21;;;;;;;137.93;47.87;;;;;;;;;;7323002;19;20407;-57
2024/03/04 00:41:51;;;;;;;136.37;49.10;;;;;;;;;;7345918;19;20482;-55
2024/03/04 00:44:21;;;;;;;139.70;49.70;;;;;;;;;;7323045;19;20410;-56
2024/03/04 00:46:50;;;;;;;140.27;50.40;;;;;;;;;;7346044;19;20410;-55
2024/03/04 00:49:22;;;;;;;149.27;51.30;;;;;;;;;;7327858;19;20399;-56
2024/03/04 00:51:52;;;;;;;131.43;47.17;;;;;;;;;;7345692;19;20815;-52
2024/03/04 00:54:21;;;;;;;148.77;50.07;;;;;;;;;;7322119;19;20423;-53
2024/03/04 00:56:50;;;;;;;128.60;46.87;;;;;;;;;;7344810;19;20514;-53
2024/03/04 00:59:20;;;;;;;129.20;48.00;;;;;;;;;;7322590;19;20819;-56
2024/03/04 01:01:50;;;;;;;141.40;49.00;;;;;;;;;;7346300;19;20430;-53
2024/03/04 01:04:19;;;;;;;126.87;47.70;;;;;;;;;;7331034;19;20924;-52
2024/03/04 01:06:52;;;;;;;124.00;48.47;;;;;;;;;;7344202;19;20431;-52
2024/03/04 01:09:22;;;;;;;131.43;47.90;;;;;;;;;;7323716;19;20445;-56
2024/03/04 01:11:53;;;;;;;129.23;48.03;;;;;;;;;;7344169;19;20399;-56
2024/03/04 01:14:22;;;;;;;134.40;47.80;;;;;;;;;;7321136;19;20442;-52
2024/03/04 01:16:52;;;;;;;124.23;51.07;;;;;;;;;;7344772;19;20410;-56
2024/03/04 01:19:23;;;;;;;146.30;50.00;;;;;;;;;;7321914;19;20403;-51
2024/03/04 01:21:56;;;;;;;133.20;48.70;;;;;;;;;;7344649;19;20474;-50
2024/03/04 01:24:25;;;;;;;137.83;48.10;;;;;;;;;;7321648;19;20434;-54
2024/03/04 01:26:55;;;;;;;134.07;48.27;;;;;;;;;;7344211;19;20584;-55
2024/03/04 01:29:26;;;;;;;131.63;49.20;;;;;;;;;;7321065;19;20411;-54
2024/03/04 01:31:55;;;;;;;132.40;47.90;;;;;;;;;;7343372;19;20938;-49
2024/03/04 01:34:24;;;;;;;132.57;50.40;;;;;;;;;;7320571;19;20800;-55
2024/03/04 01:36:57;;;;;;;128.53;49.73;;;;;;;;;;7344056;19;20465;-53
2024/03/04 01:39:26;;;;;;;124.73;47.80;;;;;;;;;;7318341;19;20396;-55
2024/03/04 01:41:55;;;;;;;137.43;50.23;;;;;;;;;;7344110;19;20399;-53
2024/03/04 01:44:28;;;;;;;136.20;49.47;;;;;;;;;;7321050;19;20777;-50
2024/03/04 01:46:58;;;;;;;127.10;49.67;;;;;;;;;;7344787;19;20471;-51
2024/03/04 01:49:27;;;;;;;124.50;48.70;;;;;;;;;;7321085;19;20399;-53
2024/03/04 01:52:00;;;;;;;123.50;48.73;;;;;;;;;;7343119;19;20962;-54
2024/03/04 01:54:29;;;;;;;131.53;49.70;;;;;;;;;;7319565;19;20494;-55
2024/03/04 01:56:59;;;;;;;141.63;50.40;;;;;;;;;;7343568;19;20419;-55
2024/03/04 01:59:29;;;;;;;133.40;48.20;;;;;;;;;;7318776;19;20486;-52
2024/03/04 02:01:58;;;;;;;117.30;44.70;;;;;;;;;;7343123;19;20427;-52
2024/03/04 02:04:28;;;;;;;129.27;46.20;;;;;;;;;;7319870;19;20418;-55
2024/03/04 02:07:01;;;;;;;138.70;50.13;;;;;;;;;;7342991;19;20399;-52
2024/03/04 02:09:31;;;;;;;119.00;47.57;;;;;;;;;;7320450;19;20410;-53
2024/03/04 02:12:03;;;;;;;137.07;48.67;;;;;;;;;;7339871;19;20789;-51
2024/03/04 02:14:33;;;;;;;128.40;47.40;;;;;;;;;;7318335;19;20475;-52
2024/03/04 02:17:02;;;;;;;125.60;46.43;;;;;;;;;;7342504;19;20502;-51
2024/03/04 02:19:32;;;;;;;219.37;78.27;;;;;;;;;;7319939;19;20966;-51
2024/03/04 02:22:05;;;;;;;203.07;73.60;;;;;;;;;;7341599;19;20962;-50
2024/03/04 02:24:38;;;;;;;135.90;50.13;;;;;;;;;;7319192;19;20435;-56
2024/03/04 02:27:07;;;;;;;125.10;50.57;;;;;;;;;;7342983;19;20442;-51
2024/03/04 02:29:37;;;;;;;132.90;50.77;;;;;;;;;;7319443;19;21069;-53
2024/03/04 02:32:07;;;;;;;120.20;48.27;;;;;;;;;;7341696;19;20495;-52
2024/03/04 02:34:36;;;;;;;135.30;49.47;;;;;;;;;;7318174;19;20864;-54
2024/03/04 02:37:06;;;;;;;118.17;46.27;;;;;;;;;;7342007;19;20781;-53
2024/03/04 02:39:39;;;;;;;123.67;47.23;;;;;;;;;;7319254;19;20887;-54
2024/03/04 02:42:09;;;;;;;125.83;45.87;;;;;;;;;;7341568;19;20998;-50
2024/03/04 02:44:38;;;;;;;133.23;49.77;;;;;;;;;;7319037;19;21397;-51
2024/03/04 02:47:07;;;;;;;129.93;47.00;;;;;;;;;;7341683;19;20514;-55
2024/03/04 02:49:37;;;;;;;108.30;42.70;;;;;;;;;;7319065;19;20890;-53
2024/03/04 02:52:08;;;;;;;112.87;45.60;;;;;;;;;;7349618;19;20995;-53
2024/03/04 02:54:40;;;;;;;118.50;43.80;;;;;;;;;;7329229;19;21274;-53
2024/03/04 02:57:10;;;;;;;107.27;43.47;;;;;;;;;;7351856;19;20423;-52
2024/03/04 02:59:41;;;;;;;116.13;45.30;;;;;;;;;;7328179;19;20380;-55
2024/03/04 03:02:10;;;;;;;105.90;43.83;;;;;;;;;;7351236;19;20419;-54
2024/03/04 03:04:39;;;;;;;101.80;42.60;;;;;;;;;;7329889;19;20377;-52
2024/03/04 03:07:09;;;;;;;115.47;45.30;;;;;;;;;;7351554;19;20415;-52
2024/03/04 03:09:41;;;;;;;102.00;43.70;;;;;;;;;;7330436;19;20849;-55
2024/03/04 03:12:10;;;;;;;106.20;43.43;;;;;;;;;;7351410;19;20415;-54
2024/03/04 03:14:40;;;;;;;104.23;42.37;;;;;;;;;;7328794;19;20424;-51
2024/03/04 03:17:09;;;;;;;115.03;43.90;;;;;;;;;;7351550;19;20829;-52
2024/03/04 03:19:39;;;;;;;103.33;42.47;;;;;;;;;;7329260;19;20975;-53
2024/03/04 03:22:08;;;;;;;103.60;43.63;;;;;;;;;;7351208;19;20448;-48
2024/03/04 03:24:40;;;;;;;100.83;43.10;;;;;;;;;;7328986;19;20443;-52
2024/03/04 03:27:11;;;;;;;108.53;43.37;;;;;;;;;;7351256;19;20834;-53
2024/03/04 03:29:40;;;;;;;101.90;44.10;;;;;;;;;;7329311;19;20410;-51
2024/03/04 03:32:10;;;;;;;112.20;42.70;;;;;;;;;;7350535;19;20431;-50
2024/03/04 03:34:39;;;;;;;106.83;44.17;;;;;;;;;;7327962;19;20472;-53
2024/03/04 03:37:09;;;;;;;97.10;42.33;;;;;;;;;;7350587;19;20428;-49
2024/03/04 03:39:40;;;;;;;108.80;44.43;;;;;;;;;;7328768;19;20451;-55
2024/03/04 03:42:11;;;;;;;102.07;41.80;;;;;;;;;;7350695;19;20503;-52
2024/03/04 03:44:40;;;;;;;105.57;42.27;;;;;;;;;;7328492;19;20426;-53
2024/03/04 03:47:10;;;;;;;103.60;42.10;;;;;;;;;;7350471;19;20423;-51
2024/03/04 03:49:39;;;;;;;109.37;42.00;;;;;;;;;;7329009;19;20407;-53
2024/03/04 03:52:09;;;;;;;114.87;42.83;;;;;;;;;;7349890;19;20439;-54
2024/03/04 03:54:41;;;;;;;98.47;40.53;;;;;;;;;;7328070;19;20416;-56
2024/03/04 03:57:10;;;;;;;104.70;43.50;;;;;;;;;;7349834;19;20444;-54
2024/03/04 03:59:41;;;;;;;90.37;39.67;;;;;;;;;;7328054;19;20398;-54
2024/03/04 04:02:10;;;;;;;110.97;41.97;;;;;;;;;;7346592;19;20435;-52
2024/03/04 04:04:40;;;;;;;108.43;42.07;;;;;;;;;;7327874;19;20412;-53
2024/03/04 04:07:09;;;;;;;93.97;41.53;;;;;;;;;;7349820;19;20428;-55
2024/03/04 04:09:41;;;;;;;100.10;40.87;;;;;;;;;;7328361;19;20826;-51
2024/03/04 04:12:11;;;;;;;97.83;41.50;;;;;;;;;;7349708;19;20792;-53
2024/03/04 04:14:40;;;;;;;102.90;42.50;;;;;;;;;;7328562;19;21331;-50
2024/03/04 04:17:10;;;;;;;99.33;42.37;;;;;;;;;;7348186;19;20877;-52
2024/03/04 04:19:39;;;;;;;110.67;42.40;;;;;;;;;;7328055;19;20396;-53
2024/03/04 04:22:09;;;;;;;114.17;43.70;;;;;;;;;;7349602;19;20498;-55
2024/03/04 04:24:42;;;;;;;105.00;42.03;;;;;;;;;;7327611;19;20389;-51
2024/03/04 04:27:12;;;;;;;117.27;42.90;;;;;;;;;;7349779;19;20511;-55
2024/03/04 04:29:42;;;;;;;105.63;41.07;;;;;;;;;;7328398;19;20431;-53
2024/03/04 04:32:13;;;;;;;102.63;41.80;;;;;;;;;;7349213;19;20438;-52
2024/03/04 04:34:43;;;;;;;94.33;40.27;;;;;;;;;;7327563;19;20415;-50
2024/03/04 04:37:12;;;;;;;105.27;44.23;;;;;;;;;;7348323;19;20443;-51
2024/03/04 04:39:44;;;;;;;99.37;40.07;;;;;;;;;;7327255;19;20419;-52
2024/03/04 04:42:15;;;;;;;98.90;41.20;;;;;;;;;;7349105;19;21102;-53
2024/03/04 04:44:45;;;;;;;111.90;43.70;;;;;;;;;;7326260;19;20427;-51
2024/03/04 04:47:14;;;;;;;108.50;42.23;;;;;;;;;;7348430;19;20427;-50
2024/03/04 04:49:43;;;;;;;101.90;43.30;;;;;;;;;;7328411;19;21302;-53
2024/03/04 04:52:13;;;;;;;107.07;42.20;;;;;;;;;;7348236;19;20452;-56
2024/03/04 04:54:45;;;;;;;112.00;42.10;;;;;;;;;;7325838;19;20415;-51
2024/03/04 04:57:15;;;;;;;110.10;44.20;;;;;;;;;;7348677;19;20438;-53
2024/03/04 04:59:44;;;;;;;103.60;40.57;;;;;;;;;;7328511;19;20497;-55
2024/03/04 05:02:14;;;;;;;100.87;43.57;;;;;;;;;;7347822;19;20431;-53
2024/03/04 05:04:46;;;;;;;108.20;41.30;;;;;;;;;;7325985;19;20415;-56
2024/03/04 05:07:26;;;;;;;108.03;41.17;;;;;;;;;;7324960;19;20446;-51
2024/03/04 05:09:58;;;;;;;117.67;43.67;;;;;;;;;;7347770;19;20895;-53
2024/03/04 05:12:29;;;;;;;114.73;42.97;;;;;;;;;;7325945;19;20492;-52
2024/03/04 05:14:58;;;;;;;112.40;43.33;;;;;;;;;;7347036;19;20443;-55
2024/03/04 05:17:28;;;;;;;113.43;42.67;;;;;;;;;;7325399;19;20442;-52
2024/03/04 05:19:58;;;;;;;111.07;43.83;;;;;;;;;;7347728;19;20441;-50
2024/03/04 05:22:28;;;;;;;104.27;43.60;;;;;;;;;;7325030;19;20475;-53
2024/03/04 05:25:00;;;;;;;105.47;45.30;;;;;;;;;;7346940;19;20423;-53
2024/03/04 05:27:32;;;;;;;107.27;43.47;;;;;;;;;;7325949;19;20431;-53
2024/03/04 05:30:01;;;;;;;113.33;44.57;;;;;;;;;;7347483;19;20434;-51
2024/03/04 05:32:30;;;;;;;111.33;44.83;;;;;;;;;;7325526;19;20467;-54
2024/03/04 05:35:00;;;;;;;108.23;41.73;;;;;;;;;;7346832;19;20451;-54
2024/03/04 05:37:29;;;;;;;102.77;42.33;;;;;;;;;;7325196;19;20427;-50
2024/03/04 05:40:03;;;;;;;108.00;43.80;;;;;;;;;;7346775;19;20776;-53
2024/03/04 05:42:35;;;;;;;98.20;40.77;;;;;;;;;;7324548;19;20488;-53
2024/03/04 05:45:04;;;;;;;104.60;41.77;;;;;;;;;;7346630;19;20997;-52
2024/03/04 05:47:34;;;;;;;110.30;45.00;;;;;;;;;;7325491;19;20441;-55
2024/03/04 05:50:03;;;;;;;113.73;44.10;;;;;;;;;;7347643;19;20429;-53
2024/03/04 05:52:33;;;;;;;101.47;40.63;;;;;;;;;;7325592;19;20474;-55
2024/03/04 05:55:06;;;;;;;123.50;45.20;;;;;;;;;;7345842;19;20439;-56
2024/03/04 05:57:37;;;;;;;114.83;43.90;;;;;;;;;;7322241;19;20439;-49
2024/03/04 06:00:11;;;;;;;84.40;36.27;;;;;;;;;;7346874;19;20419;-55
2024/03/04 06:02:42;;;;;;;129.27;48.97;;;;;;;;;;7324678;19;20426;-51
2024/03/04 06:05:11;;;;;;;122.87;52.30;;;;;;;;;;7342222;19;20502;-54
2024/03/04 06:07:41;;;;;;;137.93;54.13;;;;;;;;;;7324861;19;20398;-53
2024/03/04 06:10:13;;;;;;;137.97;56.53;;;;;;;;;;7346549;19;20423;-52
2024/03/04 06:12:43;;;;;;;125.83;52.97;;;;;;;;;;7324184;19;20425;-52
2024/03/04 06:15:12;;;;;;;116.50;48.83;;;;;;;;;;7345703;19;20430;-56
2024/03/04 06:17:42;;;;;;;114.70;47.83;;;;;;;;;;7324462;19;21137;-50
2024/03/04 06:20:12;;;;;;;96.07;42.50;;;;;;;;;;7346570;19;20530;-49
2024/03/04 06:22:42;;;;;;;87.83;40.00;;;;;;;;;;7324315;19;20399;-50
2024/03/04 06:25:14;;;;;;;106.47;45.87;;;;;;;;;;7345511;19;20453;-54
2024/03/04 06:27:43;;;;;;;108.83;48.43;;;;;;;;;;7331595;19;20491;-53
2024/03/04 06:30:13;;;;;;;128.50;57.60;;;;;;;;;;7353908;19;20518;-55
2024/03/04 06:32:44;;;;;;;146.87;62.90;;;;;;;;;;7331305;19;20530;-56
2024/03/04 06:35:13;;;;;;;86.57;40.10;;;;;;;;;;7352602;19;20431;-53
2024/03/04 06:37:43;;;;;;;95.10;42.50;;;;;;;;;;7331205;19;20423;-52
2024/03/04 06:40:15;;;;;;;75.10;34.67;;;;;;;;;;7353451;19;20511;-52
2024/03/04 06:42:45;;;;;;;79.00;35.30;;;;;;;;;;7330078;19;20443;-54
2024/03/04 06:45:14;;;;;;;77.43;36.73;;;;;;;;;;7351951;19;20443;-49
2024/03/04 06:47:43;;;;;;;74.97;32.40;;;;;;;;;;7331485;19;20415;-52
2024/03/04 06:50:13;;;;;;;81.43;35.10;;;;;;;;;;7353210;19;20857;-54
2024/03/04 06:52:42;;;;;;;83.43;36.53;;;;;;;;;;7330801;19;20403;-50
2024/03/04 06:55:14;;;;;;;79.57;35.53;;;;;;;;;;7351352;19;20415;-55
2024/03/04 06:57:44;;;;;;;82.63;37.50;;;;;;;;;;7330163;19;20452;-52
2024/03/04 07:00:14;;;;;;;80.20;35.73;;;;;;;;;;7351485;19;20834;-52
2024/03/04 07:02:43;;;;;;;84.03;36.50;;;;;;;;;;7330718;19;20455;-55
2024/03/04 07:05:13;;;;;;;89.93;38.03;;;;;;;;;;7351983;19;20419;-50
2024/03/04 07:07:42;;;;;;;92.53;38.97;;;;;;;;;;7330403;19;20419;-48
2024/03/04 07:10:14;;;;;;;88.37;38.43;;;;;;;;;;7351009;19;20451;-53
2024/03/04 07:12:45;;;;;;;94.93;38.70;;;;;;;;;;7331468;19;20431;-53
2024/03/04 07:15:14;;;;;;;100.23;39.80;;;;;;;;;;7350774;19;20423;-50
2024/03/04 07:17:44;;;;;;;99.13;39.10;;;;;;;;;;7331647;19;21005;-49
2024/03/04 07:20:15;;;;;;;111.83;40.17;;;;;;;;;;7351142;19;20535;-55
2024/03/04 07:22:44;;;;;;;82.63;37.20;;;;;;;;;;7330569;19;20453;-55
2024/03/04 07:25:16;;;;;;;87.33;39.17;;;;;;;;;;7350450;19;20427;-54
2024/03/04 07:27:45;;;;;;;93.23;40.13;;;;;;;;;;7331503;19;20420;-53
2024/03/04 07:30:15;;;;;;;106.40;40.90;;;;;;;;;;7351101;19;20962;-52
2024/03/04 07:32:45;;;;;;;96.43;40.43;;;;;;;;;;7330710;19;20457;-50
2024/03/04 07:35:14;;;;;;;103.00;40.80;;;;;;;;;;7347938;19;20462;-48
2024/03/04 07:37:44;;;;;;;93.50;39.20;;;;;;;;;;7317408;19;20439;-52
2024/03/04 07:40:16;;;;;;;109.90;42.33;;;;;;;;;;7342352;19;20455;-52
2024/03/04 07:42:46;;;;;;;105.50;41.67;;;;;;;;;;7322224;19;20514;-57
2024/03/04 07:45:15;;;;;;;93.63;38.43;;;;;;;;;;7342182;19;20813;-56
2024/03/04 07:47:45;;;;;;;103.50;38.50;;;;;;;;;;7321079;19;20966;-54
2024/03/04 07:50:14;;;;;;;91.67;38.63;;;;;;;;;;7343616;19;20958;-51
2024/03/04 07:52:44;;;;;;;90.23;39.73;;;;;;;;;;7320042;19;20519;-52
2024/03/04 07:55:16;;;;;;;99.57;41.00;;;;;;;;;;7343420;19;20478;-53
2024/03/04 07:57:47;;;;;;;93.00;39.60;;;;;;;;;;7320508;19;20419;-51
2024/03/04 08:00:17;;;;;;;98.87;41.40;;;;;;;;;;7342866;19;20447;-54
2024/03/04 08:02:46;;;;;;;89.53;37.07;;;;;;;;;;7319597;19;20514;-52
2024/03/04 08:05:16;;;;;;;108.80;39.40;;;;;;;;;;7341810;19;20436;-51
2024/03/04 08:07:45;;;;;;;99.40;38.97;;;;;;;;;;7321072;19;20972;-54
2024/03/04 08:10:17;;;;;;;99.93;40.67;;;;;;;;;;7342054;19;20422;-53
2024/03/04 08:12:47;;;;;;;100.03;41.83;;;;;;;;;;7319038;19;20785;-53
2024/03/04 08:15:17;;;;;;;97.00;41.10;;;;;;;;;;7340792;19;20419;-50
2024/03/04 08:17:46;;;;;;;115.53;48.50;;;;;;;;;;7320549;19;20431;-53
2024/03/04 08:20:24;;;;;;;89.80;39.73;;;;;;;;;;7319120;19;20510;-51
2024/03/04 08:23:02;;;;;;;95.50;40.83;;;;;;;;;;7342214;19;20434;-49
2024/03/04 08:25:35;;;;;;;90.57;40.27;;;;;;;;;;7316378;19;20435;-49
2024/03/04 08:28:05;;;;;;;96.33;39.43;;;;;;;;;;7341220;19;20419;-49
2024/03/04 08:30:45;;;;;;;95.23;39.20;;;;;;;;;;7320633;19;20438;-51
2024/03/04 08:33:15;;;;;;;86.33;38.20;;;;;;;;;;7339376;19;20994;-49
2024/03/04 08:35:44;;;;;;;106.53;41.40;;;;;;;;;;7319317;19;20419;-51
2024/03/04 08:43:47;;;;;;;105.53;41.80;;;;;;;;;;7243067;19;3193663;-53
2024/03/04 08:46:17;;;;;;;99.97;41.83;;;;;;;;;;7419412;19;20850;-58
2024/03/04 08:48:46;;;;;;;98.10;40.63;;;;;;;;;;7416359;19;20790;-50
2024/03/04 08:51:17;;;;;;;99.90;42.30;;;;;;;;;;7364569;19;20418;-51
2024/03/04 08:53:47;;;;;;;96.23;39.97;;;;;;;;;;7346621;19;20422;-54
2024/03/04 08:56:17;;;;;;;89.53;38.97;;;;;;;;;;7366562;19;20456;-54
2024/03/04 08:58:49;;;;;;;90.97;37.90;;;;;;;;;;7346818;19;20454;-54
2024/03/04 09:01:20;;;;;;;98.07;41.10;;;;;;;;;;7362580;19;20430;-50
2024/03/04 09:03:50;;;;;;;95.67;39.47;;;;;;;;;;7344846;19;20513;-53
2024/03/04 09:06:19;;;;;;;93.80;40.80;;;;;;;;;;7373744;19;21523;-53
2024/03/04 09:08:50;;;;;;;89.07;39.17;;;;;;;;;;7348972;19;20541;-53
2024/03/04 09:11:19;;;;;;;90.37;38.20;;;;;;;;;;7371417;19;20438;-53
2024/03/04 09:13:52;;;;;;;89.47;40.30;;;;;;;;;;7351439;19;20429;-54
2024/03/04 09:16:21;;;;;;;102.77;41.30;;;;;;;;;;7372941;19;20422;-52
2024/03/04 09:18:51;;;;;;;95.40;39.50;;;;;;;;;;7348958;19;20450;-49
2024/03/04 09:21:24;;;;;;;93.43;41.30;;;;;;;;;;7372558;19;20435;-54
2024/03/04 09:23:54;;;;;;;95.53;40.30;;;;;;;;;;7350769;19;20829;-54
2024/03/04 09:26:24;;;;;;;83.27;37.80;;;;;;;;;;7371986;19;21058;-55
2024/03/04 09:28:56;;;;;;;83.43;37.20;;;;;;;;;;7346114;19;20486;-53
2024/03/04 09:31:25;;;;;;;87.67;38.67;;;;;;;;;;7372826;19;20720;-54
2024/03/04 09:33:55;;;;;;;88.47;37.20;;;;;;;;;;7350341;19;20423;-55
2024/03/04 09:36:24;;;;;;;74.80;35.57;;;;;;;;;;7371821;19;20427;-53
2024/03/04 09:38:54;;;;;;;86.50;38.73;;;;;;;;;;7348974;19;20458;-52
2024/03/04 09:41:23;;;;;;;80.73;36.57;;;;;;;;;;7372089;19;20449;-55
2024/03/04 09:43:53;;;;;;;86.10;38.50;;;;;;;;;;7350354;19;20426;-52
2024/03/04 09:46:26;;;;;;;92.00;38.67;;;;;;;;;;7373318;19;20505;-52
2024/03/04 09:48:56;;;;;;;85.70;38.90;;;;;;;;;;7347313;19;20981;-53
2024/03/04 09:51:25;;;;;;;85.43;36.70;;;;;;;;;;7353853;19;20429;-53
2024/03/04 09:53:55;;;;;;;102.40;42.37;;;;;;;;;;7320797;19;20435;-54
2024/03/04 09:56:26;;;;;;;106.83;39.33;;;;;;;;;;7344032;19;20434;-54
2024/03/04 09:58:56;;;;;;;91.73;38.17;;;;;;;;;;7320215;19;20812;-56
2024/03/04 10:01:28;;;;;;;93.20;38.80;;;;;;;;;;7344187;19;20435;-49
2024/03/04 10:03:57;;;;;;;89.60;39.73;;;;;;;;;;7321497;19;20423;-49
2024/03/04 10:06:27;;;;;;;93.90;42.47;;;;;;;;;;7343276;19;20423;-54
2024/03/04 10:08:57;;;;;;;88.70;39.33;;;;;;;;;;7320428;19;20479;-55
2024/03/04 10:11:26;;;;;;;101.90;42.23;;;;;;;;;;7342601;19;20514;-56
2024/03/04 10:13:56;;;;;;;104.10;43.53;;;;;;;;;;7321741;19;20434;-52
2024/03/04 10:16:29;;;;;;;103.27;42.93;;;;;;;;;;7344291;19;21340;-52
2024/03/04 10:19:03;;;;;;;108.20;44.70;;;;;;;;;;7319902;19;21058;-53
2024/03/04 10:21:33;;;;;;;105.90;43.37;;;;;;;;;;7342158;19;20426;-51
2024/03/04 10:24:09;;;;;;;84.10;37.10;;;;;;;;;;7319053;19;20421;-50
2024/03/04 10:26:42;;;;;;;133.43;53.20;;;;;;;;;;7343267;19;20416;-54
2024/03/04 10:29:12;;;;;;;148.70;63.80;;;;;;;;;;7319879;19;20500;-54
2024/03/04 10:31:53;;;;;;;108.00;48.80;;;;;;;;;;7343099;19;20434;-54
2024/03/04 10:34:23;;;;;;;118.53;53.80;;;;;;;;;;7320767;19;20766;-51
2024/03/04 10:36:57;;;;;;;85.43;39.60;;;;;;;;;;7318035;19;20426;-53
2024/03/04 10:39:29;;;;;;;86.10;40.20;;;;;;;;;;7341262;19;20438;-51
2024/03/04 10:42:02;;;;;;;98.30;43.20;;;;;;;;;;7318552;19;20556;-51
2024/03/04 10:44:32;;;;;;;86.10;39.97;;;;;;;;;;7342560;19;20428;-55
2024/03/04 10:47:05;;;;;;;83.87;39.60;;;;;;;;;;7319622;19;20437;-54
2024/03/04 10:49:35;;;;;;;95.93;42.73;;;;;;;;;;7337425;19;20448;-55
2024/03/04 10:52:05;;;;;;;85.67;41.90;;;;;;;;;;7319797;19;20386;-52
2024/03/04 10:54:42;;;;;;;97.83;42.63;;;;;;;;;;7341641;19;20418;-52
2024/03/04 10:57:22;;;;;;;89.60;41.00;;;;;;;;;;7320856;19;20420;-54
2024/03/04 10:59:54;;;;;;;82.53;39.30;;;;;;;;;;7316929;19;20459;-52
2024/03/04 11:02:31;;;;;;;79.43;39.80;;;;;;;;;;7340166;19;20425;-53
2024/03/04 11:05:02;;;;;;;71.97;37.50;;;;;;;;;;7319880;19;20439;-55
2024/03/04 11:07:33;;;;;;;81.57;39.20;;;;;;;;;;7341908;19;21103;-54
2024/03/04 11:10:06;;;;;;;77.17;36.63;;;;;;;;;;7318035;19;20978;-52
2024/03/04 11:12:35;;;;;;;83.00;39.30;;;;;;;;;;7342365;19;20430;-55
2024/03/04 11:15:07;;;;;;;80.87;39.93;;;;;;;;;;7319535;19;20391;-54
2024/03/04 11:17:43;;;;;;;79.00;38.67;;;;;;;;;;7340774;19;20441;-55
2024/03/04 11:20:17;;;;;;;76.50;39.37;;;;;;;;;;7314940;19;20881;-54
2024/03/04 11:22:47;;;;;;;78.20;40.07;;;;;;;;;;7317279;19;20426;-53
2024/03/04 11:25:17;;;;;;;69.50;36.90;;;;;;;;;;7345221;19;20406;-54
2024/03/04 11:27:47;;;;;;;83.07;40.60;;;;;;;;;;7323197;19;20438;-52
2024/03/04 11:30:17;;;;;;;74.63;38.03;;;;;;;;;;7343788;19;20473;-53
2024/03/04 11:32:49;;;;;;;84.03;40.87;;;;;;;;;;7323161;19;20987;-51
2024/03/04 11:35:28;;;;;;;83.40;40.77;;;;;;;;;;7346088;19;20500;-55
2024/03/04 11:38:06;;;;;;;78.90;40.00;;;;;;;;;;7323046;19;20432;-51
2024/03/04 11:40:36;;;;;;;79.50;39.97;;;;;;;;;;7344785;19;20406;-55
2024/03/04 11:43:06;;;;;;;72.70;37.60;;;;;;;;;;7322738;19;20728;-55
2024/03/04 11:45:40;;;;;;;78.20;38.73;;;;;;;;;;7345765;19;20486;-53
2024/03/04 11:48:25;;;;;;;72.53;39.53;;;;;;;;;;7324165;19;20423;-55
2024/03/04 11:50:57;;;;;;;74.13;36.87;;;;;;;;;;7314797;19;20456;-57
2024/03/04 11:53:30;;;;;;;70.30;36.20;;;;;;;;;;7341328;19;21640;-53
2024/03/04 11:55:59;;;;;;;72.90;36.83;;;;;;;;;;7318413;19;20434;-53
2024/03/04 11:58:30;;;;;;;67.60;36.27;;;;;;;;;;7340775;19;20477;-52
2024/03/04 12:01:00;;;;;;;65.13;35.07;;;;;;;;;;7317006;19;20443;-53
2024/03/04 12:03:52;;;;;;;61.63;32.07;;;;;;;;;;7340562;19;20423;-51
2024/03/04 12:06:28;;;;;;;62.37;35.20;;;;;;;;;;7315933;19;20443;-55
2024/03/04 12:09:00;;;;;;;61.93;34.40;;;;;;;;;;7316571;19;20469;-51
2024/03/04 12:11:33;;;;;;;65.13;33.50;;;;;;;;;;7340144;19;20490;-54
2024/03/04 12:14:04;;;;;;;64.57;35.00;;;;;;;;;;7316698;19;20419;-54
2024/03/04 12:16:33;;;;;;;65.37;36.20;;;;;;;;;;7340427;19;20419;-49
2024/03/04 12:19:04;;;;;;;56.43;32.67;;;;;;;;;;7314553;19;20550;-50
2024/03/04 12:21:37;;;;;;;55.13;33.40;;;;;;;;;;7339501;19;20434;-52
2024/03/04 12:24:07;;;;;;;51.63;30.90;;;;;;;;;;7316530;19;20901;-52
2024/03/04 12:26:36;;;;;;;57.20;32.17;;;;;;;;;;7339842;19;20452;-54
2024/03/04 12:29:07;;;;;;;48.87;31.20;;;;;;;;;;7316370;19;20472;-55
2024/03/04 12:31:37;;;;;;;65.03;31.77;;;;;;;;;;7340575;19;20449;-53
2024/03/04 12:34:07;;;;;;;50.07;31.50;;;;;;;;;;7316303;19;20402;-53
2024/03/04 12:36:43;;;;;;;51.90;31.90;;;;;;;;;;7339569;19;20510;-55
2024/03/04 12:39:15;;;;;;;53.33;31.93;;;;;;;;;;7316982;19;20513;-53
2024/03/04 12:41:45;;;;;;;52.40;32.50;;;;;;;;;;7327388;19;20865;-51
2024/03/04 12:44:18;;;;;;;47.50;31.30;;;;;;;;;;7338160;19;20495;-51
2024/03/04 12:46:48;;;;;;;45.13;28.27;;;;;;;;;;7316446;19;20434;-55
2024/03/04 12:49:18;;;;;;;42.60;28.63;;;;;;;;;;7333154;19;20438;-54
2024/03/04 12:51:50;;;;;;;43.73;30.20;;;;;;;;;;7315385;19;20434;-54
2024/03/04 12:54:23;;;;;;;40.97;29.53;;;;;;;;;;7339214;19;20506;-56
2024/03/04 12:56:52;;;;;;;46.53;30.50;;;;;;;;;;7316693;19;20430;-52
2024/03/04 12:59:22;;;;;;;39.60;29.10;;;;;;;;;;7337097;19;20457;-55
2024/03/04 13:01:52;;;;;;;42.40;30.30;;;;;;;;;;7337923;19;20439;-54
2024/03/04 13:04:22;;;;;;;45.07;29.00;;;;;;;;;;7313819;19;20447;-54
2024/03/04 13:06:54;;;;;;;41.30;27.27;;;;;;;;;;7338159;19;20531;-55
2024/03/04 13:09:23;;;;;;;40.60;28.90;;;;;;;;;;7337336;19;20997;-53
2024/03/04 13:11:55;;;;;;;49.57;30.43;;;;;;;;;;7337585;19;20416;-53
2024/03/04 13:14:25;;;;;;;41.93;28.70;;;;;;;;;;7338575;19;20483;-54
2024/03/04 13:16:54;;;;;;;43.73;28.50;;;;;;;;;;7316330;19;20403;-54
2024/03/04 13:19:23;;;;;;;43.33;30.93;;;;;;;;;;7335320;19;20781;-54
2024/03/04 13:21:55;;;;;;;151.23;91.90;;;;;;;;;;7314238;19;20380;-50
2024/03/04 13:24:25;;;;;;;53.60;35.37;;;;;;;;;;7336699;19;20427;-54
2024/03/04 13:26:54;;;;;;;63.23;39.40;;;;;;;;;;7318565;19;21273;-52
2024/03/04 13:29:23;;;;;;;64.77;43.90;;;;;;;;;;7343141;19;20876;-55
2024/03/04 13:31:53;;;;;;;58.83;40.60;;;;;;;;;;7322104;19;20424;-54
2024/03/04 13:34:22;;;;;;;52.33;32.20;;;;;;;;;;7343653;19;20426;-52
2024/03/04 13:36:52;;;;;;;83.87;50.47;;;;;;;;;;7322267;19;20384;-52
2024/03/04 13:39:24;;;;;;;60.37;39.70;;;;;;;;;;7343917;19;20431;-54
2024/03/04 13:41:53;;;;;;;50.57;35.67;;;;;;;;;;7321415;19;21700;-51
2024/03/04 13:44:23;;;;;;;77.07;52.47;;;;;;;;;;7343287;19;20438;-56
2024/03/04 13:46:52;;;;;;;55.30;36.43;;;;;;;;;;7321581;19;20388;-54
2024/03/04 13:49:22;;;;;;;52.30;35.83;;;;;;;;;;7343441;19;21050;-49
2024/03/04 13:51:51;;;;;;;56.93;40.20;;;;;;;;;;7322207;19;20392;-52
2024/03/04 13:54:23;;;;;;;80.07;37.77;;;;;;;;;;7344622;19;20426;-53
2024/03/04 13:56:53;;;;;;;93.60;42.50;;;;;;;;;;7321832;19;20459;-52
2024/03/04 13:59:22;;;;;;;58.70;35.83;;;;;;;;;;7343108;19;20453;-52
2024/03/04 14:01:51;;;;;;;79.97;46.50;;;;;;;;;;7317683;19;20877;-52
2024/03/04 14:04:22;;;;;;;55.00;33.17;;;;;;;;;;7344086;19;20479;-52
2024/03/04 14:06:52;;;;;;;47.47;30.93;;;;;;;;;;7320349;19;20427;-55
2024/03/04 14:09:24;;;;;;;48.10;33.53;;;;;;;;;;7342362;19;20537;-55
2024/03/04 14:11:54;;;;;;;54.90;33.77;;;;;;;;;;7321247;19;20407;-53
2024/03/04 14:14:24;;;;;;;49.27;28.67;;;;;;;;;;7340911;19;20502;-52
2024/03/04 14:16:53;;;;;;;45.97;26.33;;;;;;;;;;7321476;19;20518;-52
2024/03/04 14:19:23;;;;;;;47.97;28.23;;;;;;;;;;7341462;19;20457;-54
2024/03/04 14:21:52;;;;;;;39.20;26.40;;;;;;;;;;7321235;19;20381;-51
2024/03/04 14:24:24;;;;;;;45.60;29.87;;;;;;;;;;7341607;19;20430;-53
2024/03/04 14:26:54;;;;;;;52.00;29.60;;;;;;;;;;7320879;19;20463;-53
2024/03/04 14:29:23;;;;;;;50.80;31.47;;;;;;;;;;7341621;19;21017;-54
2024/03/04 14:31:52;;;;;;;52.47;28.70;;;;;;;;;;7320240;19;20377;-56
2024/03/04 14:34:26;;;;;;;44.87;27.37;;;;;;;;;;7342017;19;20445;-53
2024/03/04 14:36:55;;;;;;;44.03;28.60;;;;;;;;;;7320641;19;20427;-55